Time;durP1;ratioP1;P1;durP2;ratioP2;P2;SDS_P1;SDS_P2;PMS_P1;PMS_P2;Temp;Humidity;BMP_temperature;BMP_pressure;BME280_temperature;BME280_humidity;BME280_pressure;Samples;Min_cycle;Max_cycle;Signal;HPM_P1;HPM_P2
2023/04/26 00:01:52;;;;;;;11.90;7.83;;;;;;;6.84;100.00;98208.66;5008868;28;20256;-82
2023/04/26 00:04:19;;;;;;;11.47;7.33;;;;;;;6.93;100.00;98195.03;5008436;28;20295;-81
2023/04/26 00:06:48;;;;;;;11.87;7.10;;;;;;;6.94;100.00;98196.72;5008555;28;20206;-81
2023/04/26 00:09:14;;;;;;;11.63;7.57;;;;;;;7.03;100.00;98192.75;5007910;28;20672;-81
2023/04/26 00:11:41;;;;;;;10.00;6.87;;;;;;;7.01;100.00;98187.56;5008612;28;20226;-82
2023/04/26 00:14:07;;;;;;;11.80;7.87;;;;;;;6.92;100.00;98192.47;5008630;28;20206;-82
2023/04/26 00:16:34;;;;;;;12.67;8.23;;;;;;;6.98;100.00;98206.16;5008288;28;20679;-82
2023/04/26 00:19:01;;;;;;;11.70;8.20;;;;;;;7.02;100.00;98201.59;5007989;28;20229;-82
2023/04/26 00:21:28;;;;;;;9.57;7.70;;;;;;;6.99;100.00;98196.47;5008156;28;20236;-81
2023/04/26 00:23:55;;;;;;;11.47;7.70;;;;;;;6.94;100.00;98198.50;5008120;28;20215;-81
2023/04/26 00:26:21;;;;;;;13.70;7.90;;;;;;;6.86;100.00;98198.94;5008489;28;20213;-82
2023/04/26 00:28:48;;;;;;;13.50;7.93;;;;;;;6.84;100.00;98200.75;5007967;28;20740;-81
2023/04/26 00:31:15;;;;;;;11.27;7.70;;;;;;;6.79;100.00;98205.41;5007472;28;20230;-82
2023/04/26 00:33:41;;;;;;;10.80;8.03;;;;;;;6.73;100.00;98202.28;5008046;28;20772;-82
2023/04/26 00:36:08;;;;;;;10.93;8.07;;;;;;;6.67;100.00;98203.47;5008178;28;20206;-82
2023/04/26 00:38:36;;;;;;;13.17;8.70;;;;;;;6.54;100.00;98212.88;5007960;28;20238;-82
2023/04/26 00:41:02;;;;;;;13.50;8.07;;;;;;;6.44;100.00;98210.81;5007512;28;20310;-82
2023/04/26 00:43:29;;;;;;;11.10;8.23;;;;;;;6.33;100.00;98203.50;5008097;28;20210;-81
2023/04/26 00:45:56;;;;;;;11.40;8.27;;;;;;;6.27;100.00;98210.81;5007832;28;20210;-82
2023/04/26 00:48:22;;;;;;;11.13;8.77;;;;;;;6.28;100.00;98209.91;5007929;28;20594;-81
2023/04/26 00:50:49;;;;;;;14.80;9.73;;;;;;;6.09;100.00;98215.22;5007299;28;20207;-82
2023/04/26 00:53:16;;;;;;;15.30;8.73;;;;;;;6.01;100.00;98222.66;5008262;28;20209;-82
2023/04/26 00:55:44;;;;;;;13.13;9.27;;;;;;;5.99;100.00;98228.88;5008250;28;20229;-82
2023/04/26 00:58:11;;;;;;;14.47;8.97;;;;;;;6.01;100.00;98222.66;5007609;28;20223;-81
2023/04/26 01:00:38;;;;;;;14.00;8.90;;;;;;;6.06;100.00;98225.03;5006963;28;20209;-81
2023/04/26 01:03:04;;;;;;;12.83;8.37;;;;;;;6.12;100.00;98219.47;5011568;28;20205;-82
2023/04/26 01:05:31;;;;;;;16.20;8.57;;;;;;;6.15;100.00;98212.31;5011473;28;20218;-82
2023/04/26 01:07:58;;;;;;;11.17;7.73;;;;;;;6.14;100.00;98223.72;5011176;28;20652;-82
2023/04/26 01:10:25;;;;;;;12.67;8.10;;;;;;;6.13;100.00;98216.78;5010441;28;20206;-82
2023/04/26 01:12:53;;;;;;;10.50;7.93;;;;;;;6.12;100.00;98214.22;5011179;28;20217;-81
2023/04/26 01:15:20;;;;;;;9.50;8.03;;;;;;;6.11;100.00;98215.16;5010972;28;20214;-82
2023/04/26 01:17:46;;;;;;;10.00;7.07;;;;;;;6.01;100.00;98220.03;5011148;28;20212;-82
2023/04/26 01:20:14;;;;;;;12.43;7.80;;;;;;;5.92;100.00;98225.72;5010289;28;20230;-82
2023/04/26 01:22:42;;;;;;;9.47;7.00;;;;;;;5.84;100.00;98225.25;5011146;28;20239;-82
2023/04/26 01:25:11;;;;;;;11.87;8.20;;;;;;;5.86;100.00;98226.00;5011260;28;20214;-82
2023/04/26 01:27:38;;;;;;;10.67;7.40;;;;;;;5.87;100.00;98219.84;5011255;28;20508;-82
2023/04/26 01:30:07;;;;;;;11.77;8.03;;;;;;;5.86;100.00;98228.63;5010050;28;20709;-82
2023/04/26 01:32:33;;;;;;;13.03;8.73;;;;;;;5.88;100.00;98218.94;5010766;28;20240;-82
2023/04/26 01:35:00;;;;;;;11.03;7.63;;;;;;;5.88;100.00;98216.31;5011184;28;20216;-82
2023/04/26 01:37:26;;;;;;;11.07;7.80;;;;;;;6.03;100.00;98215.53;5011178;28;20209;-82
2023/04/26 01:39:54;;;;;;;11.07;7.60;;;;;;;6.02;100.00;98220.84;5009908;28;20242;-82
2023/04/26 01:42:21;;;;;;;12.50;7.73;;;;;;;5.93;100.00;98213.47;5010569;28;20237;-81
2023/04/26 01:44:47;;;;;;;11.53;8.00;;;;;;;5.90;100.00;98214.44;5010668;28;20221;-82
2023/04/26 01:47:14;;;;;;;11.80;7.57;;;;;;;5.92;100.00;98214.38;5010711;28;20560;-81
2023/04/26 01:49:41;;;;;;;11.13;7.17;;;;;;;5.89;100.00;98217.13;5010021;28;20233;-82
2023/04/26 01:52:07;;;;;;;11.57;7.03;;;;;;;5.84;100.00;98214.75;5010884;28;20282;-82
2023/04/26 01:54:34;;;;;;;12.17;7.63;;;;;;;5.84;100.00;98219.13;5010876;28;20213;-82
2023/04/26 01:57:05;;;;;;;12.23;7.50;;;;;;;5.78;100.00;98211.53;5010450;28;20219;-82
2023/04/26 01:59:34;;;;;;;11.93;8.13;;;;;;;5.82;100.00;98215.75;5010063;28;20319;-82
2023/04/26 02:02:00;;;;;;;10.90;7.40;;;;;;;5.86;100.00;98214.69;5010822;28;20243;-84
2023/04/26 02:04:27;;;;;;;9.93;6.80;;;;;;;5.89;100.00;98210.13;5010740;28;20589;-84
2023/04/26 02:06:54;;;;;;;9.47;6.30;;;;;;;5.90;100.00;98213.59;5010640;28;20213;-84
2023/04/26 02:09:20;;;;;;;14.03;7.27;;;;;;;6.02;100.00;98208.59;5009491;28;20241;-84
2023/04/26 02:11:47;;;;;;;8.33;6.20;;;;;;;6.02;100.00;98207.72;5010685;28;20209;-84
2023/04/26 02:14:15;;;;;;;11.87;6.70;;;;;;;6.05;100.00;98203.19;5010497;28;20221;-85
2023/04/26 02:16:42;;;;;;;11.03;6.23;;;;;;;6.00;100.00;98199.97;5010251;28;20205;-85
2023/04/26 02:19:09;;;;;;;9.67;6.47;;;;;;;6.01;100.00;98201.66;5009631;28;20354;-84
2023/04/26 02:21:52;;;;;;;9.07;6.23;;;;;;;6.10;100.00;98197.72;5010231;28;20240;-84
2023/04/26 02:24:19;;;;;;;8.67;6.33;;;;;;;6.08;100.00;98203.03;5010392;28;20269;-84
2023/04/26 02:26:45;;;;;;;8.83;6.27;;;;;;;6.01;100.00;98199.03;5010107;28;20210;-84
2023/04/26 02:29:12;;;;;;;9.17;5.47;;;;;;;6.00;100.00;98199.09;5008966;28;20236;-84
2023/04/26 02:31:39;;;;;;;9.77;5.70;;;;;;;5.99;100.00;98203.50;5010032;28;20695;-84
2023/04/26 02:34:06;;;;;;;8.30;5.57;;;;;;;6.03;100.00;98201.56;5009982;28;20213;-85
2023/04/26 02:36:32;;;;;;;9.40;6.20;;;;;;;6.05;100.00;98199.72;5010255;28;20213;-84
2023/04/26 02:38:59;;;;;;;7.23;5.67;;;;;;;6.00;100.00;98206.97;5010309;28;20727;-84
2023/04/26 02:41:26;;;;;;;6.57;5.13;;;;;;;6.00;100.00;98206.97;5009990;28;20237;-84
2023/04/26 02:43:52;;;;;;;8.90;5.97;;;;;;;5.95;100.00;98206.34;5010417;28;20691;-84
2023/04/26 02:46:19;;;;;;;11.03;6.07;;;;;;;5.93;100.00;98222.16;5010085;28;20213;-84
2023/04/26 02:48:46;;;;;;;7.50;5.67;;;;;;;5.87;100.00;98213.75;5010590;28;20320;-84
2023/04/26 02:51:13;;;;;;;9.00;5.57;;;;;;;5.86;100.00;98212.91;5009012;28;20218;-84
2023/04/26 02:53:39;;;;;;;10.13;5.90;;;;;;;5.87;100.00;98208.50;5009572;28;20216;-84
2023/04/26 02:56:06;;;;;;;9.40;6.17;;;;;;;5.79;100.00;98215.84;5009423;28;20220;-84
2023/04/26 02:58:32;;;;;;;10.63;6.53;;;;;;;5.76;100.00;98216.00;5009326;28;20723;-84
2023/04/26 03:00:59;;;;;;;10.50;6.03;;;;;;;5.74;100.00;98213.47;5008868;28;20209;-84
2023/04/26 03:03:25;;;;;;;8.93;5.90;;;;;;;5.66;100.00;98220.84;5009252;28;20216;-84
2023/04/26 03:05:53;;;;;;;8.77;5.70;;;;;;;5.62;100.00;98219.28;5009116;28;20217;-84
2023/04/26 03:08:20;;;;;;;10.50;6.37;;;;;;;5.53;100.00;98214.50;5009342;28;20229;-84
2023/04/26 03:10:46;;;;;;;13.87;7.10;;;;;;;5.50;100.00;98225.13;5008360;28;20217;-84
2023/04/26 03:13:13;;;;;;;11.93;7.80;;;;;;;5.51;100.00;98218.97;5009066;28;20667;-84
2023/04/26 03:15:44;;;;;;;12.37;7.73;;;;;;;5.45;100.00;98214.00;5009244;28;20413;-85
2023/04/26 03:18:10;;;;;;;12.10;8.07;;;;;;;5.37;100.00;98221.38;5008973;28;20209;-84
2023/04/26 03:20:37;;;;;;;15.70;7.70;;;;;;;5.30;100.00;98216.50;5008513;28;20216;-84
2023/04/26 03:23:05;;;;;;;12.57;8.33;;;;;;;5.30;100.00;98219.13;5008745;28;20253;-84
2023/04/26 03:25:33;;;;;;;14.90;8.87;;;;;;;5.30;100.00;98222.59;5008987;28;20210;-84
2023/04/26 03:27:59;;;;;;;14.97;9.63;;;;;;;5.25;100.00;98221.97;5008920;28;20213;-83
2023/04/26 03:30:26;;;;;;;12.43;9.53;;;;;;;5.22;100.00;98219.50;5008344;28;20216;-84
2023/04/26 03:32:53;;;;;;;18.47;11.87;;;;;;;5.23;100.00;98221.19;5008934;28;20213;-84
2023/04/26 03:35:20;;;;;;;17.93;11.93;;;;;;;5.26;100.00;98225.44;5009140;28;20209;-84
2023/04/26 03:37:46;;;;;;;19.53;11.17;;;;;;;5.23;100.00;98222.94;5008646;28;20220;-84
2023/04/26 03:40:15;;;;;;;24.03;12.83;;;;;;;5.20;100.00;98223.94;5007891;28;20240;-84
2023/04/26 03:42:42;;;;;;;18.23;13.03;;;;;;;5.16;100.00;98219.78;5008737;28;20347;-84
2023/04/26 03:45:09;;;;;;;21.53;13.60;;;;;;;5.19;100.00;98219.63;5008655;28;20588;-84
2023/04/26 03:47:36;;;;;;;20.03;13.03;;;;;;;5.07;100.00;98219.38;5008999;28;20212;-84
2023/04/26 03:50:02;;;;;;;20.23;12.67;;;;;;;5.01;100.00;98220.47;5008133;28;20225;-84
2023/04/26 03:52:29;;;;;;;23.27;14.80;;;;;;;4.95;100.00;98220.75;5009254;28;20591;-84
2023/04/26 03:54:56;;;;;;;23.43;13.87;;;;;;;4.90;100.00;98222.72;5008570;28;20212;-84
2023/04/26 03:57:24;;;;;;;20.27;12.47;;;;;;;4.83;100.00;98220.47;5008756;28;20299;-84
2023/04/26 03:59:50;;;;;;;21.83;13.07;;;;;;;4.75;100.00;98223.44;5007964;28;20229;-84
2023/04/26 04:02:17;;;;;;;17.83;11.80;;;;;;;4.63;100.00;98229.22;5008724;28;20233;-84
2023/04/26 04:04:43;;;;;;;16.13;10.80;;;;;;;4.50;100.00;98235.91;5008514;28;20215;-84
2023/04/26 04:07:09;;;;;;;15.77;11.00;;;;;;;4.35;100.00;98238.34;5009035;28;20220;-84
2023/04/26 04:09:36;;;;;;;19.37;11.70;;;;;;;4.33;100.00;98222.69;5008001;28;20226;-84
2023/04/26 04:12:03;;;;;;;22.33;12.60;;;;;;;4.27;100.00;98225.56;5008436;28;20218;-84
2023/04/26 04:14:31;;;;;;;23.10;13.97;;;;;;;4.25;100.00;98227.41;5008441;28;20209;-84
2023/04/26 04:16:58;;;;;;;23.27;13.63;;;;;;;4.28;100.00;98224.66;5008339;28;20213;-84
2023/04/26 04:19:25;;;;;;;23.83;14.80;;;;;;;4.35;100.00;98223.47;5007948;28;20614;-84
2023/04/26 04:21:51;;;;;;;23.17;15.30;;;;;;;4.36;100.00;98217.34;5008417;28;20295;-84
2023/04/26 04:24:18;;;;;;;24.93;14.90;;;;;;;4.34;100.00;98219.16;5008351;28;20593;-84
2023/04/26 04:26:45;;;;;;;26.77;16.10;;;;;;;4.39;100.00;98219.81;5008517;28;20306;-84
2023/04/26 04:29:11;;;;;;;29.43;15.73;;;;;;;4.47;100.00;98220.31;5007531;28;20260;-84
2023/04/26 04:31:40;;;;;;;25.03;15.70;;;;;;;4.56;100.00;98217.31;5008675;28;20208;-84
2023/04/26 04:34:07;;;;;;;26.03;15.87;;;;;;;4.61;100.00;98223.19;5008568;28;20279;-84
2023/04/26 04:36:34;;;;;;;26.07;14.87;;;;;;;4.58;100.00;98231.16;5010934;28;20270;-84
2023/04/26 04:39:01;;;;;;;27.80;15.37;;;;;;;4.64;100.00;98230.91;5012023;28;20241;-84
2023/04/26 04:41:27;;;;;;;26.70;15.47;;;;;;;4.65;100.00;98240.44;5012051;28;20248;-84
2023/04/26 04:43:54;;;;;;;22.93;14.23;;;;;;;4.62;100.00;98231.88;5012431;28;20251;-84
2023/04/26 04:46:21;;;;;;;24.13;14.63;;;;;;;4.63;100.00;98239.69;5011841;28;20252;-84
2023/04/26 04:48:48;;;;;;;25.20;15.37;;;;;;;4.68;100.00;98232.47;5011418;28;20744;-84
2023/04/26 04:51:15;;;;;;;28.60;14.97;;;;;;;4.79;100.00;98234.59;5010887;28;20217;-84
2023/04/26 04:53:41;;;;;;;25.03;15.30;;;;;;;4.93;100.00;98242.69;5011835;28;20205;-84
2023/04/26 04:56:08;;;;;;;32.17;18.90;;;;;;;5.04;100.00;98246.53;5011235;28;20298;-84
2023/04/26 04:58:35;;;;;;;29.70;15.97;;;;;;;5.04;100.00;98241.31;5011442;28;20262;-84
2023/04/26 05:01:01;;;;;;;27.40;15.77;;;;;;;5.17;100.00;98246.81;5010720;28;20206;-84
2023/04/26 05:03:28;;;;;;;25.63;16.07;;;;;;;5.20;100.00;98250.13;5011150;28;20251;-84
2023/04/26 05:05:56;;;;;;;27.60;15.60;;;;;;;5.14;100.00;98258.28;5011123;28;20589;-84
2023/04/26 05:08:22;;;;;;;23.23;15.33;;;;;;;5.19;100.00;98260.72;5010987;28;20237;-84
2023/04/26 05:10:49;;;;;;;25.73;15.37;;;;;;;5.21;100.00;98266.72;5010651;28;20220;-84
2023/04/26 05:13:15;;;;;;;23.73;13.97;;;;;;;5.30;100.00;98263.66;5011283;28;20255;-84
2023/04/26 05:15:42;;;;;;;23.87;13.90;;;;;;;5.40;100.00;98268.44;5010999;28;20213;-84
2023/04/26 05:18:08;;;;;;;20.73;13.13;;;;;;;5.49;100.00;98264.53;5011068;28;20209;-83
2023/04/26 05:20:35;;;;;;;20.20;12.97;;;;;;;5.47;100.00;98271.59;5010568;28;20206;-84
2023/04/26 05:23:03;;;;;;;21.07;13.57;;;;;;;5.54;100.00;98271.25;5010970;28;20625;-87
2023/04/26 05:25:29;;;;;;;21.80;13.37;;;;;;;5.59;100.00;98277.13;5010946;28;20597;-83
2023/04/26 05:27:56;;;;;;;20.10;11.90;;;;;;;5.71;100.00;98279.19;5011177;28;20217;-84
2023/04/26 05:30:22;;;;;;;15.90;11.00;;;;;;;5.69;100.00;98278.38;5010409;28;20206;-85
2023/04/26 05:32:49;;;;;;;22.33;15.40;;;;;;;5.60;100.00;98291.94;5011095;28;20206;-83
2023/04/26 05:35:16;;;;;;;19.80;12.30;;;;;;;5.73;100.00;98290.44;5011104;28;20247;-82
2023/04/26 05:37:42;;;;;;;19.70;12.30;;;;;;;5.68;100.00;98287.16;5010707;28;20221;-81
2023/04/26 05:40:11;;;;;;;18.30;12.43;;;;;;;5.68;100.00;98287.16;5010113;28;20249;-76
2023/04/26 05:42:38;;;;;;;19.33;12.53;;;;;;;5.74;100.00;98291.28;5010765;28;20234;-81
2023/04/26 05:45:05;;;;;;;17.13;12.13;;;;;;;5.65;100.00;98282.09;5011332;28;20216;-83
2023/04/26 05:47:32;;;;;;;17.53;12.10;;;;;;;5.74;100.00;98296.53;5011268;28;20317;-85
2023/04/26 05:49:58;;;;;;;18.60;12.23;;;;;;;5.89;100.00;98291.44;5010748;28;20236;-84
2023/04/26 05:52:24;;;;;;;20.17;13.30;;;;;;;6.17;100.00;98296.19;5011525;28;20209;-83
2023/04/26 05:54:51;;;;;;;23.10;13.97;;;;;;;6.57;100.00;98295.91;5011515;28;20217;-85
2023/04/26 05:57:19;;;;;;;17.73;12.07;;;;;;;7.18;100.00;98293.47;5011893;28;20668;-84
2023/04/26 05:59:45;;;;;;;16.53;12.00;;;;;;;7.73;100.00;98296.63;5010580;28;20228;-82
2023/04/26 06:02:12;;;;;;;15.60;11.17;;;;;;;8.23;100.00;98286.75;5011180;28;20206;-91
2023/04/26 06:04:38;;;;;;;15.10;11.20;;;;;;;8.66;100.00;98283.31;5011224;28;20218;-80
2023/04/26 06:07:05;;;;;;;16.93;11.00;;;;;;;9.01;100.00;98279.44;5010592;28;20242;-82
2023/04/26 06:09:32;;;;;;;16.63;10.97;;;;;;;9.32;100.00;98276.59;5009712;28;20340;-81
2023/04/26 06:11:58;;;;;;;17.07;12.13;;;;;;;9.58;100.00;98273.19;5010366;28;20303;-81
2023/04/26 06:14:26;;;;;;;16.67;11.53;;;;;;;9.85;97.99;98274.09;5009292;28;20218;-82
2023/04/26 06:16:53;;;;;;;17.10;11.80;;;;;;;10.07;95.84;98269.13;5008030;28;20596;-85
2023/04/26 06:19:19;;;;;;;15.03;11.37;;;;;;;10.16;93.89;98284.41;5004733;28;20231;-79
2023/04/26 06:21:47;;;;;;;12.20;9.57;;;;;;;10.24;92.65;98269.75;5009519;28;20240;-79
2023/04/26 06:24:14;;;;;;;14.90;9.63;;;;;;;10.16;89.64;98268.56;5009738;28;20244;-79
2023/04/26 06:26:40;;;;;;;13.20;9.60;;;;;;;9.87;88.04;98269.53;5008638;28;20215;-79
2023/04/26 06:29:07;;;;;;;15.43;9.23;;;;;;;9.28;88.47;98272.44;5008504;28;20247;-79
2023/04/26 06:31:35;;;;;;;12.23;8.63;;;;;;;8.71;91.63;98281.25;5008805;28;20283;-78
2023/04/26 06:34:02;;;;;;;12.53;9.60;;;;;;;8.36;94.34;98298.28;5008447;28;20217;-78
2023/04/26 06:36:28;;;;;;;13.30;10.13;;;;;;;8.22;98.03;98300.84;5010227;28;20320;-78
2023/04/26 06:38:55;;;;;;;14.00;9.83;;;;;;;8.06;97.89;98297.34;5009569;28;20243;-77
2023/04/26 06:41:22;;;;;;;12.20;8.73;;;;;;;8.02;96.42;98296.69;5009168;28;20220;-78
2023/04/26 06:43:48;;;;;;;17.23;10.25;;;;;;;7.97;97.83;98303.16;5009221;28;20451;-82
2023/04/26 06:46:15;;;;;;;13.50;8.90;;;;;;;7.95;97.07;98299.78;5006521;28;20208;-82
2023/04/26 06:48:42;;;;;;;11.70;7.73;;;;;;;7.87;94.41;98291.44;5009360;28;20230;-83
2023/04/26 06:51:09;;;;;;;12.10;8.20;;;;;;;7.91;95.90;98298.22;5008390;28;20205;-84
2023/04/26 06:53:36;;;;;;;13.20;9.40;;;;;;;7.99;99.11;98302.13;5007328;28;20297;-84
2023/04/26 06:56:03;;;;;;;12.73;8.80;;;;;;;8.04;100.00;98305.34;5008467;28;20674;-83
2023/04/26 06:58:29;;;;;;;11.87;8.37;;;;;;;8.09;99.58;98303.28;5007009;28;20227;-83
2023/04/26 07:00:56;;;;;;;11.33;8.33;;;;;;;8.14;99.15;98301.25;5005800;28;20217;-84
2023/04/26 07:03:22;;;;;;;12.53;8.40;;;;;;;8.15;96.14;98300.31;5006194;28;20236;-84
2023/04/26 07:05:50;;;;;;;12.43;7.90;;;;;;;8.17;95.15;98289.69;5006220;28;20675;-82
2023/04/26 07:08:17;;;;;;;11.27;7.33;;;;;;;8.32;96.72;98294.13;5005892;28;20243;-80
2023/04/26 07:10:44;;;;;;;8.13;6.10;;;;;;;8.39;89.99;98263.88;5007576;28;20250;-78
2023/04/26 07:13:10;;;;;;;10.73;7.90;;;;;;;8.42;90.34;98268.94;5007809;28;20746;-83
2023/04/26 07:15:37;;;;;;;11.20;8.30;;;;;;;8.44;91.86;98277.63;5004959;28;20519;-82
2023/04/26 07:18:03;;;;;;;10.27;6.30;;;;;;;8.61;93.26;98270.41;5006224;28;20211;-82
2023/04/26 07:20:30;;;;;;;8.60;5.20;;;;;;;8.83;91.72;98264.72;5005991;28;20219;-83
2023/04/26 07:23:13;;;;;;;8.67;5.40;;;;;;;8.93;87.22;98252.69;5006582;28;20523;-82
2023/04/26 07:25:39;;;;;;;5.67;4.93;;;;;;;8.98;82.06;98227.75;5007954;28;20308;-80
2023/04/26 07:28:07;;;;;;;5.90;4.13;;;;;;;9.05;79.43;98226.41;5007777;28;20438;-83
2023/04/26 07:30:33;;;;;;;6.47;3.97;;;;;;;9.09;77.33;98219.16;5006580;28;20208;-85
2023/04/26 07:33:00;;;;;;;5.47;3.40;;;;;;;9.22;76.09;98220.09;5008193;28;20217;-84
2023/04/26 07:35:27;;;;;;;5.77;3.53;;;;;;;9.26;76.97;98234.78;5007953;28;20230;-83
2023/04/26 07:37:54;;;;;;;6.13;3.73;;;;;;;9.25;74.45;98222.53;5007259;28;20702;-83
2023/04/26 07:40:23;;;;;;;6.43;4.53;;;;;;;9.37;76.90;98234.97;5007844;28;20244;-83
2023/04/26 07:42:50;;;;;;;6.63;4.53;;;;;;;9.45;77.30;98232.69;5006989;28;20227;-84
2023/04/26 07:45:16;;;;;;;17.77;5.00;;;;;;;9.57;74.94;98229.28;5007138;28;20218;-84
2023/04/26 07:47:43;;;;;;;7.67;4.70;;;;;;;9.47;72.04;98212.31;5004734;28;20289;-84
2023/04/26 07:50:11;;;;;;;6.57;4.27;;;;;;;9.56;72.34;98209.13;5006935;28;20730;-83
2023/04/26 07:52:37;;;;;;;7.33;4.63;;;;;;;9.76;73.70;98230.66;4996025;28;20224;-83
2023/04/26 07:55:05;;;;;;;7.97;5.13;;;;;;;9.79;72.52;98221.69;4988016;28;20298;-84
2023/04/26 07:57:33;;;;;;;8.23;5.33;;;;;;;9.60;66.88;98195.63;5005047;28;20232;-84
2023/04/26 07:59:59;;;;;;;8.30;4.70;;;;;;;9.57;68.64;98216.09;5006637;28;20236;-84
2023/04/26 08:02:26;;;;;;;6.53;4.67;;;;;;;9.62;69.39;98225.38;5007618;28;20211;-84
2023/04/26 08:04:54;;;;;;;6.03;4.20;;;;;;;9.55;67.41;98207.44;5007655;28;20240;-84
2023/04/26 08:07:21;;;;;;;6.47;4.20;;;;;;;9.67;66.11;98206.66;5006904;28;20213;-83
2023/04/26 08:09:47;;;;;;;8.20;4.33;;;;;;;9.73;66.26;98203.59;5008228;28;20225;-84
2023/04/26 08:12:14;;;;;;;7.50;4.50;;;;;;;9.85;69.06;98221.28;5011306;28;20224;-84
2023/04/26 08:14:42;;;;;;;7.20;4.60;;;;;;;9.97;67.38;98213.41;5010953;28;20439;-79
2023/04/26 08:17:09;;;;;;;9.07;5.00;;;;;;;9.97;65.13;98199.38;5012039;28;20218;-87
2023/04/26 08:19:36;;;;;;;7.20;5.73;;;;;;;10.04;65.84;98219.19;5005813;28;20442;-86
2023/04/26 08:22:02;;;;;;;6.73;4.83;;;;;;;9.92;63.91;98207.56;5008319;28;20452;-87
2023/04/26 08:24:29;;;;;;;7.90;4.57;;;;;;;9.90;65.18;98219.22;5007439;28;20225;-87
2023/04/26 08:26:57;;;;;;;7.77;5.50;;;;;;;10.00;64.36;98207.94;5009671;28;20761;-86
2023/04/26 08:29:24;;;;;;;7.43;5.47;;;;;;;10.21;68.28;98240.06;5010671;28;20473;-87
2023/04/26 08:31:51;;;;;;;6.03;4.30;;;;;;;10.26;64.52;98209.72;5011802;28;20214;-86
2023/04/26 08:34:18;;;;;;;6.93;4.90;;;;;;;10.50;65.99;98220.44;5011906;28;20227;-86
2023/04/26 08:36:45;;;;;;;7.83;5.77;;;;;;;10.69;66.58;98231.44;5011753;28;20209;-86
2023/04/26 08:39:12;;;;;;;6.13;5.27;;;;;;;10.81;61.66;98193.59;5013461;22;20284;-82
2023/04/26 08:41:43;;;;;;;9.45;5.60;;;;;;;10.69;59.52;98184.72;4972353;28;20499;-84
2023/04/26 08:44:23;;;;;;;9.67;5.87;;;;;;;11.12;65.53;98230.22;4973063;28;20228;-84
2023/04/26 08:47:03;;;;;;;7.77;5.43;;;;;;;11.41;65.75;98226.34;4972953;28;20215;-84
2023/04/26 08:49:39;;;;;;;8.03;5.40;;;;;;;11.59;64.84;98225.06;4972342;28;20234;-84
2023/04/26 08:52:09;;;;;;;8.07;5.27;;;;;;;11.96;65.36;98234.69;4972810;28;20241;-83
2023/04/26 08:54:37;;;;;;;7.72;5.15;;;;;;;12.28;61.49;98202.22;4972978;28;20438;-84
2023/04/26 08:57:04;;;;;;;6.33;4.53;;;;;;;12.45;59.90;98187.69;4985805;28;20212;-84
2023/04/26 08:59:31;;;;;;;9.40;4.90;;;;;;;12.55;60.28;98201.94;4991534;28;20343;-83
2023/04/26 09:02:01;;;;;;;8.47;5.60;;;;;;;12.62;61.81;98204.03;4992084;28;20225;-85
2023/04/26 09:04:28;;;;;;;4.73;4.10;;;;;;;12.59;59.25;98188.31;4992051;28;20253;-85
2023/04/26 09:07:00;;;;;;;12.00;5.07;;;;;;;12.63;56.87;98167.72;4992110;28;20206;-84
2023/04/26 09:09:27;;;;;;;6.17;4.57;;;;;;;12.51;57.47;98179.25;4991210;28;20230;-84
2023/04/26 09:11:55;;;;;;;8.60;4.60;;;;;;;12.44;56.40;98167.44;4992142;28;20211;-85
2023/04/26 09:14:22;;;;;;;10.83;4.90;;;;;;;12.39;56.70;98177.53;4992071;28;20216;-85
2023/04/26 09:16:48;;;;;;;9.70;5.03;;;;;;;12.29;55.52;98164.16;4992133;28;20214;-79
2023/04/26 09:19:16;;;;;;;7.30;4.50;;;;;;;12.20;54.34;98148.94;4989548;28;20326;-79
2023/04/26 09:21:45;;;;;;;6.67;4.23;;;;;;;12.29;54.66;98164.16;4988793;28;20210;-79
2023/04/26 09:24:12;;;;;;;8.00;4.83;;;;;;;12.49;57.77;98187.34;4990872;28;20241;-79
2023/04/26 09:26:39;;;;;;;6.70;4.70;;;;;;;12.59;56.19;98174.25;4990801;28;20309;-81
2023/04/26 09:29:14;;;;;;;6.33;4.30;;;;;;;12.61;55.07;98164.34;4989004;28;20576;-79
2023/04/26 09:31:43;;;;;;;5.80;4.60;;;;;;;12.26;52.87;98139.69;4991521;28;20217;-82
2023/04/26 09:34:10;;;;;;;6.70;4.40;;;;;;;12.34;54.02;98150.56;4991401;28;20634;-80
2023/04/26 09:36:51;;;;;;;5.87;4.30;;;;;;;12.42;54.69;98148.16;4991423;28;20213;-80
2023/04/26 09:39:32;;;;;;;7.07;4.73;;;;;;;12.54;56.22;98171.91;4990592;28;20235;-82
2023/04/26 09:41:58;;;;;;;7.03;5.50;;;;;;;12.67;52.61;98124.09;4983189;28;20463;-81
2023/04/26 09:44:25;;;;;;;5.67;4.80;;;;;;;12.55;54.57;98144.47;4950296;28;20258;-81
2023/04/26 09:47:00;;;;;;;8.27;5.07;;;;;;;12.69;58.64;98183.16;4959070;28;20217;-80
2023/04/26 09:49:27;;;;;;;7.35;5.72;;;;;;;12.81;59.06;98188.38;4969732;28;20438;-79
2023/04/26 09:52:02;;;;;;;8.40;5.57;;;;;;;12.86;57.74;98186.22;4971880;28;20210;-76
2023/04/26 09:54:39;;;;;;;8.70;4.50;;;;;;;12.83;57.77;98180.31;4971681;28;20303;-78
2023/04/26 09:57:06;;;;;;;5.80;4.40;;;;;;;12.88;58.00;98181.63;4971646;28;20214;-77
2023/04/26 09:59:43;;;;;;;6.43;4.40;;;;;;;13.02;57.36;98175.28;4970666;28;20728;-76
2023/04/26 10:02:16;;;;;;;7.17;5.13;;;;;;;13.05;57.79;98185.66;4971511;28;20206;-77
2023/04/26 10:04:45;;;;;;;7.40;4.97;;;;;;;13.04;57.64;98179.53;4971501;28;20735;-78
2023/04/26 10:07:14;;;;;;;7.78;5.53;;;;;;;13.09;56.90;98171.19;4971230;28;20581;-83
2023/04/26 10:09:41;;;;;;;7.37;4.40;;;;;;;13.15;55.28;98157.44;4970936;28;20262;-83
2023/04/26 10:12:09;;;;;;;7.77;4.83;;;;;;;13.17;54.92;98153.72;4972313;28;20207;-82
2023/04/26 10:14:36;;;;;;;9.43;4.77;;;;;;;13.28;54.08;98144.88;4994764;28;20212;-82
2023/04/26 10:17:03;;;;;;;7.70;5.30;;;;;;;13.23;53.04;98131.13;4996543;28;20220;-83
2023/04/26 10:19:31;;;;;;;5.53;4.77;;;;;;;13.37;55.76;98160.06;4994948;28;20214;-83
2023/04/26 10:22:02;;;;;;;6.30;4.80;;;;;;;13.43;54.52;98148.94;4973559;28;20250;-84
2023/04/26 10:24:31;;;;;;;6.83;5.13;;;;;;;13.52;55.74;98156.19;4974224;28;20222;-84
2023/04/26 10:26:58;;;;;;;7.60;5.27;;;;;;;13.71;56.26;98159.03;4978862;28;20211;-83
2023/04/26 10:29:26;;;;;;;7.93;5.50;;;;;;;13.78;56.23;98157.56;4971291;28;20235;-83
2023/04/26 10:32:07;;;;;;;8.00;4.80;;;;;;;13.63;54.02;98141.06;4971933;28;20290;-82
2023/04/26 10:34:35;;;;;;;7.57;4.90;;;;;;;13.79;55.36;98151.28;4971755;28;20219;-87
2023/04/26 10:37:11;;;;;;;8.63;5.40;;;;;;;13.95;56.50;98165.00;4971292;28;20213;-83
2023/04/26 10:39:40;;;;;;;5.93;4.30;;;;;;;13.97;53.90;98133.84;4970435;28;20726;-83
2023/04/26 10:42:23;;;;;;;8.60;5.27;;;;;;;14.02;53.54;98132.50;4970591;28;20212;-77
2023/04/26 10:44:50;;;;;;;6.07;4.27;;;;;;;13.85;50.67;98089.69;4970772;28;20274;-78
2023/04/26 10:47:25;;;;;;;6.77;4.67;;;;;;;13.78;51.94;98101.78;4970760;28;20274;-78
2023/04/26 10:49:52;;;;;;;6.27;4.13;;;;;;;13.73;52.29;98114.59;4969857;28;20300;-77
2023/04/26 10:52:21;;;;;;;5.90;4.27;;;;;;;13.58;52.02;98094.63;4970930;28;20283;-77
2023/04/26 10:54:55;;;;;;;6.43;4.57;;;;;;;13.48;51.19;98093.69;4970626;28;20640;-77
2023/04/26 10:57:22;;;;;;;4.80;3.13;;;;;;;13.38;52.53;98108.69;4970865;28;20272;-77
2023/04/26 11:00:20;;;;;;;3.97;3.60;;;;;;;13.37;51.27;98094.56;4969854;28;20304;-76
2023/04/26 11:02:54;;;;;;;5.17;3.83;;;;;;;13.39;52.22;98105.06;4970886;28;20579;-75
2023/04/26 11:05:38;;;;;;;5.93;3.80;;;;;;;13.44;51.51;98092.25;4970385;28;20231;-79
2023/04/26 11:08:14;;;;;;;4.27;3.20;;;;;;;13.37;48.92;98060.03;4970498;28;20212;-77
2023/04/26 11:10:43;;;;;;;6.53;4.00;;;;;;;13.31;50.46;98081.78;4969249;28;20234;-81
2023/04/26 11:13:09;;;;;;;7.03;4.00;;;;;;;13.29;51.32;98093.47;4970892;28;20216;-80
2023/04/26 11:15:36;;;;;;;7.47;3.93;;;;;;;13.45;48.90;98067.38;4970587;28;20253;-80
2023/04/26 11:18:03;;;;;;;4.83;3.30;;;;;;;13.72;49.01;98065.09;4970603;28;20223;-81
2023/04/26 11:20:31;;;;;;;4.80;3.13;;;;;;;13.85;46.14;98033.91;4969685;28;20232;-82
2023/04/26 11:22:57;;;;;;;4.43;2.80;;;;;;;13.94;46.28;98038.44;4970382;28;20754;-81
2023/04/26 11:25:26;;;;;;;6.50;4.20;;;;;;;13.96;48.88;98060.41;4970145;28;20236;-81
2023/04/26 11:27:59;;;;;;;7.47;3.70;;;;;;;13.84;47.85;98038.38;4970270;28;20219;-79
2023/04/26 11:30:27;;;;;;;6.00;4.60;;;;;;;13.93;48.79;98042.09;4969344;28;20251;-77
2023/04/26 11:32:54;;;;;;;7.20;4.27;;;;;;;14.02;50.55;98063.41;4970080;28;20208;-76